createdAt,value
2023-05-02T00:00:09.227Z,100816.00
2023-05-02T00:02:37.432Z,100833.00
2023-05-02T00:05:06.697Z,100836.00
2023-05-02T00:07:34.645Z,100844.00
2023-05-02T00:10:03.879Z,100825.00
2023-05-02T00:12:31.722Z,100834.00
2023-05-02T00:14:59.521Z,100844.00
2023-05-02T00:17:27.537Z,100831.00
2023-05-02T00:19:55.503Z,100835.00
2023-05-02T00:22:23.309Z,100846.00
2023-05-02T00:24:53.310Z,100843.00
2023-05-02T00:27:22.626Z,100836.00
2023-05-02T00:29:52.352Z,100852.00
2023-05-02T00:32:20.359Z,100846.00
2023-05-02T00:34:48.129Z,100838.00
2023-05-02T00:37:15.972Z,100848.00
2023-05-02T00:39:44.979Z,100846.00
2023-05-02T00:42:12.764Z,100849.00
2023-05-02T00:44:41.901Z,100845.00
2023-05-02T00:47:09.716Z,100858.00
2023-05-02T00:49:37.526Z,100843.00
2023-05-02T00:52:05.288Z,100846.00
2023-05-02T00:54:33.090Z,100844.00
2023-05-02T00:57:00.880Z,100863.00
2023-05-02T00:59:28.690Z,100832.00
2023-05-02T01:02:06.016Z,100856.00
2023-05-02T01:04:43.740Z,100867.00
2023-05-02T01:07:26.161Z,100869.00
2023-05-02T01:10:02.948Z,100866.00
2023-05-02T01:12:35.675Z,100859.00
2023-05-02T01:15:08.748Z,100825.00
2023-05-02T01:17:39.402Z,100861.00
2023-05-02T01:20:11.024Z,100851.00
2023-05-02T01:22:41.105Z,100855.00
2023-05-02T01:25:19.928Z,100861.00
2023-05-02T01:27:57.468Z,100855.00
2023-05-02T01:30:29.005Z,100866.00
2023-05-02T01:32:59.700Z,100871.00
2023-05-02T01:35:28.412Z,100877.00
2023-05-02T01:37:58.994Z,100869.00
2023-05-02T01:40:27.630Z,100868.00
2023-05-02T01:42:56.114Z,100875.00
2023-05-02T01:45:27.576Z,100866.00
2023-05-02T01:47:56.096Z,100856.00
2023-05-02T01:50:27.048Z,100866.00
2023-05-02T01:52:56.272Z,100878.00
2023-05-02T01:55:26.772Z,100884.00
2023-05-02T01:57:56.794Z,100887.00
2023-05-02T02:00:26.862Z,100892.00
2023-05-02T02:02:55.763Z,100894.00
2023-05-02T02:05:24.407Z,100881.00
2023-05-02T02:07:52.583Z,100897.00
2023-05-02T02:10:20.926Z,100900.00
2023-05-02T02:12:54.189Z,100887.00
2023-05-02T02:15:28.966Z,100887.00
2023-05-02T02:18:01.759Z,100897.00
2023-05-02T02:20:31.936Z,100902.00
2023-05-02T02:23:04.345Z,100896.00
2023-05-02T02:25:32.848Z,100897.00
2023-05-02T02:28:01.076Z,100903.00
2023-05-02T02:30:30.618Z,100903.00
2023-05-02T02:32:58.434Z,100914.00
2023-05-02T02:35:32.477Z,100919.00
2023-05-02T02:38:07.704Z,100912.00
2023-05-02T02:40:42.886Z,100921.00
2023-05-02T02:43:18.544Z,100902.00
2023-05-02T02:45:54.919Z,100921.00
2023-05-02T02:48:30.301Z,100925.00
2023-05-02T02:51:13.916Z,100928.00
2023-05-02T02:53:52.472Z,100929.00
2023-05-02T02:56:28.417Z,100933.00
2023-05-02T02:58:59.726Z,100935.00
2023-05-02T03:01:32.430Z,100944.00
2023-05-02T03:04:00.738Z,100942.00
2023-05-02T03:06:28.742Z,100946.00
2023-05-02T03:08:56.758Z,100944.00
2023-05-02T03:11:24.400Z,100944.00
2023-05-02T03:13:52.815Z,100954.00
2023-05-02T03:16:35.152Z,100954.00
2023-05-02T03:19:03.108Z,100961.00
2023-05-02T03:21:31.668Z,100962.00
2023-05-02T03:24:00.606Z,100972.00
2023-05-02T03:26:28.535Z,100964.00
2023-05-02T03:28:56.980Z,100970.00
2023-05-02T03:31:26.367Z,100957.00
2023-05-02T03:33:56.427Z,100960.00
2023-05-02T03:36:24.086Z,100973.00
2023-05-02T03:38:53.237Z,100965.00
2023-05-02T03:41:21.289Z,100965.00
2023-05-02T03:43:49.014Z,100974.00
2023-05-02T03:46:16.895Z,100969.00
2023-05-02T03:48:46.384Z,100970.00
2023-05-02T03:51:15.676Z,100968.00
2023-05-02T03:53:43.541Z,100980.00
2023-05-02T03:56:11.487Z,100974.00
2023-05-02T03:58:39.351Z,100974.00
2023-05-02T04:01:14.980Z,100982.00
2023-05-02T04:03:42.914Z,100984.00
2023-05-02T04:06:13.190Z,100982.00
2023-05-02T04:08:42.645Z,100993.00
2023-05-02T04:11:10.513Z,100997.00
2023-05-02T04:13:38.335Z,101002.00
2023-05-02T04:16:06.816Z,101002.00
2023-05-02T04:18:34.810Z,100992.00
2023-05-02T04:21:02.610Z,101015.00
2023-05-02T04:23:30.409Z,100997.00
2023-05-02T04:25:59.586Z,101012.00
2023-05-02T04:28:27.378Z,101017.00
2023-05-02T04:30:55.416Z,101026.00
2023-05-02T04:33:23.374Z,101021.00
2023-05-02T04:35:51.276Z,101023.00
2023-05-02T04:38:19.047Z,101030.00
2023-05-02T04:40:47.118Z,101037.00
2023-05-02T04:43:16.253Z,101044.00
2023-05-02T04:45:43.992Z,101036.00
2023-05-02T04:48:12.241Z,101053.00
2023-05-02T04:50:40.044Z,101062.00
2023-05-02T04:53:07.720Z,101059.00
2023-05-02T04:55:35.510Z,101066.00
2023-05-02T04:58:09.453Z,101065.00
2023-05-02T05:00:38.853Z,101068.00
2023-05-02T05:03:07.285Z,101079.00
2023-05-02T05:05:35.601Z,101078.00
2023-05-02T05:08:03.400Z,101080.00
2023-05-02T05:10:31.286Z,101080.00
2023-05-02T05:12:59.040Z,101091.00
2023-05-02T05:15:27.332Z,101104.00
2023-05-02T05:17:56.518Z,101090.00
2023-05-02T05:20:25.027Z,101115.00
2023-05-02T05:22:52.746Z,101125.00
2023-05-02T05:25:20.686Z,101130.00
2023-05-02T05:27:48.591Z,101113.00
2023-05-02T05:30:16.337Z,101138.00
2023-05-02T05:32:44.475Z,101122.00
2023-05-02T05:35:14.029Z,101149.00
2023-05-02T05:37:41.804Z,101137.00
2023-05-02T05:40:10.656Z,101156.00
2023-05-02T05:42:38.431Z,101151.00
2023-05-02T05:45:07.505Z,101161.00
2023-05-02T05:47:35.240Z,101172.00
2023-05-02T05:50:03.396Z,101182.00
2023-05-02T05:52:32.840Z,101171.00
2023-05-02T05:55:00.638Z,101175.00
2023-05-02T05:57:28.640Z,101193.00
2023-05-02T05:59:56.370Z,101206.00
2023-05-02T06:02:24.231Z,101190.00
2023-05-02T06:04:54.900Z,101207.00
2023-05-02T06:07:22.618Z,101216.00
2023-05-02T06:09:51.894Z,101216.00
2023-05-02T06:12:19.826Z,101211.00
2023-05-02T06:14:47.650Z,101233.00
2023-05-02T06:17:15.520Z,101246.00
2023-05-02T06:19:43.273Z,101231.00
2023-05-02T06:22:15.917Z,101254.00
2023-05-02T06:24:45.681Z,101239.00
2023-05-02T06:27:14.906Z,101243.00
2023-05-02T06:29:42.647Z,101253.00
2023-05-02T06:32:12.919Z,101235.00
2023-05-02T06:34:40.855Z,101266.00
2023-05-02T06:37:08.706Z,101269.00
2023-05-02T06:39:36.761Z,101273.00
2023-05-02T06:42:04.882Z,101275.00
2023-05-02T06:44:33.975Z,101284.00
2023-05-02T06:47:01.866Z,101277.00
2023-05-02T06:49:29.719Z,101297.00
2023-05-02T06:51:57.448Z,101298.00
2023-05-02T06:54:25.938Z,101301.00
2023-05-02T06:56:53.803Z,101306.00
2023-05-02T06:59:21.553Z,101282.00
2023-05-02T07:01:51.060Z,101280.00
2023-05-02T07:04:19.112Z,101297.00
2023-05-02T07:06:47.327Z,101313.00
2023-05-02T07:09:15.285Z,101308.00
2023-05-02T07:11:43.119Z,101332.00
2023-05-02T07:14:10.858Z,101326.00
2023-05-02T07:16:38.711Z,101328.00
2023-05-02T07:19:07.900Z,101331.00
2023-05-02T07:21:35.678Z,101328.00
2023-05-02T07:24:03.452Z,101325.00
2023-05-02T07:26:31.298Z,101332.00
2023-05-02T07:28:59.074Z,101328.00
2023-05-02T07:31:26.962Z,101334.00
2023-05-02T07:33:54.807Z,101356.00
2023-05-02T07:36:23.979Z,101352.00
2023-05-02T07:38:51.807Z,101357.00
2023-05-02T07:41:19.629Z,101349.00
2023-05-02T07:43:47.449Z,101363.00
2023-05-02T07:46:15.658Z,101377.00
2023-05-02T07:48:43.758Z,101370.00
2023-05-02T07:51:12.231Z,101373.00
2023-05-02T07:53:41.494Z,101369.00
2023-05-02T07:56:09.483Z,101370.00
2023-05-02T07:58:37.759Z,101384.00
2023-05-02T08:01:05.950Z,101385.00
2023-05-02T08:03:33.776Z,101381.00
2023-05-02T08:06:02.132Z,101395.00
2023-05-02T08:08:29.968Z,101388.00
2023-05-02T08:10:59.896Z,101384.00
2023-05-02T08:13:28.350Z,101412.00
2023-05-02T08:15:58.899Z,101413.00
2023-05-02T08:18:26.776Z,101411.00
2023-05-02T08:20:55.667Z,101419.00
2023-05-02T08:23:23.410Z,101419.00
2023-05-02T08:25:51.132Z,101430.00
2023-05-02T08:28:20.239Z,101433.00
2023-05-02T08:30:48.936Z,101430.00
2023-05-02T08:33:16.694Z,101424.00
2023-05-02T08:35:44.471Z,101425.00
2023-05-02T08:38:12.300Z,101440.00
2023-05-02T08:40:42.740Z,101429.00
2023-05-02T08:43:12.341Z,101455.00
2023-05-02T08:45:43.608Z,101457.00
2023-05-02T08:48:13.986Z,101457.00
2023-05-02T08:50:44.517Z,101456.00
2023-05-02T08:53:13.639Z,101474.00
2023-05-02T08:55:42.662Z,101467.00
2023-05-02T08:58:12.113Z,101487.00
2023-05-02T09:00:43.779Z,101481.00
2023-05-02T09:03:29.055Z,101491.00
2023-05-02T09:06:06.183Z,101494.00
2023-05-02T09:08:34.866Z,101494.00
2023-05-02T09:11:03.384Z,101494.00
2023-05-02T09:13:33.540Z,101508.00
2023-05-02T09:16:03.891Z,101510.00
2023-05-02T09:18:33.253Z,101503.00
2023-05-02T09:21:02.193Z,101510.00
2023-05-02T09:23:51.382Z,101521.00
2023-05-02T09:26:21.200Z,101515.00
2023-05-02T09:28:49.988Z,101530.00
2023-05-02T09:31:43.434Z,101535.00
2023-05-02T09:34:11.470Z,101537.00
2023-05-02T09:36:43.306Z,101537.00
2023-05-02T09:39:13.588Z,101546.00
2023-05-02T09:41:41.918Z,101537.00
2023-05-02T09:44:12.029Z,101546.00
2023-05-02T09:46:44.929Z,101549.00
2023-05-02T09:49:14.741Z,101544.00
2023-05-02T09:51:43.959Z,101547.00
2023-05-02T09:54:12.022Z,101529.00
2023-05-02T09:56:53.894Z,101552.00
2023-05-02T09:59:21.713Z,101559.00
2023-05-02T10:01:56.639Z,101550.00
2023-05-02T10:04:25.471Z,101558.00
2023-05-02T10:06:54.802Z,101563.00
2023-05-02T10:09:23.488Z,101565.00
2023-05-02T10:11:53.952Z,101573.00
2023-05-02T10:14:23.419Z,101561.00
2023-05-02T10:17:00.941Z,101578.00
2023-05-02T10:19:34.631Z,101575.00
2023-05-02T10:22:04.138Z,101573.00
2023-05-02T10:24:33.527Z,101582.00
2023-05-02T10:27:02.079Z,101579.00
2023-05-02T10:29:30.825Z,101562.00
2023-05-02T10:32:02.336Z,101582.00
2023-05-02T10:34:33.871Z,101578.00
2023-05-02T10:37:02.291Z,101583.00
2023-05-02T10:39:31.239Z,101589.00
2023-05-02T10:42:02.950Z,101579.00
2023-05-02T10:44:34.962Z,101582.00
2023-05-02T10:47:19.849Z,101585.00
2023-05-02T10:49:52.883Z,101600.00
2023-05-02T10:52:27.431Z,101603.00
2023-05-02T10:55:15.012Z,101613.00
2023-05-02T10:58:15.926Z,101613.00
2023-05-02T11:00:43.733Z,101605.00
2023-05-02T11:03:13.053Z,101609.00
2023-05-02T11:06:08.036Z,101615.00
2023-05-02T11:08:35.980Z,101606.00
2023-05-02T11:11:37.163Z,101616.00
2023-05-02T11:14:04.915Z,101604.00
2023-05-02T11:17:06.243Z,101618.00
2023-05-02T11:20:07.570Z,101625.00
2023-05-02T11:22:36.733Z,101630.00
2023-05-02T11:25:05.417Z,101625.00
2023-05-02T11:27:39.269Z,101614.00
2023-05-02T11:30:09.116Z,101606.00
2023-05-02T11:33:10.472Z,101619.00
2023-05-02T11:35:42.802Z,101607.00
2023-05-02T11:38:14.864Z,101617.00
2023-05-02T11:40:51.520Z,101608.00
2023-05-02T11:43:21.458Z,101621.00
2023-05-02T11:45:49.505Z,101615.00
2023-05-02T11:48:19.782Z,101608.00
2023-05-02T11:50:50.345Z,101623.00
2023-05-02T11:53:22.916Z,101617.00
2023-05-02T11:55:52.284Z,101625.00
2023-05-02T11:58:22.222Z,101632.00
2023-05-02T12:00:51.340Z,101628.00
2023-05-02T12:03:28.276Z,101637.00
2023-05-02T12:05:56.881Z,101630.00
2023-05-02T12:08:28.056Z,101635.00
2023-05-02T12:10:57.424Z,101634.00
2023-05-02T12:13:26.863Z,101623.00
2023-05-02T12:15:55.948Z,101630.00
2023-05-02T12:18:25.635Z,101631.00
2023-05-02T12:20:54.983Z,101638.00
2023-05-02T12:23:24.434Z,101628.00
2023-05-02T12:25:53.704Z,101630.00
2023-05-02T12:28:23.342Z,101631.00
2023-05-02T12:30:52.066Z,101645.00
2023-05-02T12:33:20.042Z,101645.00
2023-05-02T12:35:48.247Z,101628.00
2023-05-02T12:38:17.641Z,101661.00
2023-05-02T12:40:50.810Z,101643.00
2023-05-02T12:43:22.057Z,101648.00
2023-05-02T12:45:51.745Z,101649.00
2023-05-02T12:48:21.489Z,101645.00
2023-05-02T12:50:49.958Z,101662.00
2023-05-02T12:53:17.978Z,101671.00
2023-05-02T12:55:47.882Z,101671.00
2023-05-02T12:58:16.955Z,101664.00
2023-05-02T13:00:47.787Z,101681.00
2023-05-02T13:03:15.895Z,101682.00
2023-05-02T13:05:43.800Z,101693.00
2023-05-02T13:08:11.590Z,101688.00
2023-05-02T13:10:39.432Z,101696.00
2023-05-02T13:13:07.771Z,101702.00
2023-05-02T13:15:35.554Z,101706.00
2023-05-02T13:18:05.038Z,101715.00
2023-05-02T13:20:32.869Z,101705.00
2023-05-02T13:23:00.612Z,101717.00
2023-05-02T13:25:28.398Z,101711.00
2023-05-02T13:27:57.154Z,101720.00
2023-05-02T13:30:24.921Z,101706.00
2023-05-02T13:32:52.726Z,101718.00
2023-05-02T13:35:22.031Z,101710.00
2023-05-02T13:37:50.000Z,101711.00
2023-05-02T13:40:17.975Z,101705.00
2023-05-02T13:42:45.936Z,101709.00
2023-05-02T13:45:14.551Z,101690.00
2023-05-02T13:47:42.285Z,101705.00
2023-05-02T13:50:11.558Z,101710.00
2023-05-02T13:52:40.685Z,101726.00
2023-05-02T13:55:09.199Z,101714.00
2023-05-02T13:57:36.898Z,101726.00
2023-05-02T14:00:05.305Z,101720.00
2023-05-02T14:02:33.642Z,101728.00
2023-05-02T14:05:01.456Z,101723.00
2023-05-02T14:07:29.485Z,101728.00
2023-05-02T14:09:58.978Z,101725.00
2023-05-02T14:12:26.936Z,101723.00
2023-05-02T14:14:54.672Z,101732.00
2023-05-02T14:17:25.194Z,101723.00
2023-05-02T14:19:53.013Z,101738.00
2023-05-02T14:22:20.818Z,101744.00
2023-05-02T14:24:48.940Z,101737.00
2023-05-02T14:27:18.890Z,101747.00
2023-05-02T14:29:46.816Z,101739.00
2023-05-02T14:32:14.977Z,101745.00
2023-05-02T14:34:42.747Z,101737.00
2023-05-02T14:37:10.559Z,101746.00
2023-05-02T14:39:39.260Z,101758.00
2023-05-02T14:42:07.030Z,101764.00
2023-05-02T14:44:36.215Z,101762.00
2023-05-02T14:47:04.159Z,101760.00
2023-05-02T14:49:31.916Z,101759.00
2023-05-02T14:51:59.629Z,101763.00
2023-05-02T14:54:28.310Z,101774.00
2023-05-02T14:56:56.864Z,101771.00
2023-05-02T14:59:24.720Z,101774.00
2023-05-02T15:01:55.212Z,101765.00
2023-05-02T15:04:23.989Z,101783.00
2023-05-02T15:06:54.330Z,101763.00
2023-05-02T15:09:23.268Z,101783.00
2023-05-02T15:11:51.139Z,101774.00
2023-05-02T15:14:19.037Z,101781.00
2023-05-02T15:16:46.991Z,101779.00
2023-05-02T15:19:16.600Z,101779.00
2023-05-02T15:21:44.396Z,101775.00
2023-05-02T15:24:12.151Z,101774.00
2023-05-02T15:26:40.975Z,101784.00
2023-05-02T15:29:08.894Z,101785.00
2023-05-02T15:31:37.132Z,101801.00
2023-05-02T15:34:05.086Z,101785.00
2023-05-02T15:36:37.344Z,101803.00
2023-05-02T15:39:05.697Z,101798.00
2023-05-02T15:41:33.982Z,101786.00
2023-05-02T15:44:01.830Z,101797.00
2023-05-02T15:46:29.661Z,101779.00
2023-05-02T15:48:57.572Z,101791.00
2023-05-02T15:51:25.408Z,101796.00
2023-05-02T15:53:55.071Z,101805.00
2023-05-02T15:56:22.917Z,101811.00
2023-05-02T15:58:51.080Z,101806.00
2023-05-02T16:01:21.058Z,101805.00
2023-05-02T16:03:48.970Z,101797.00
2023-05-02T16:06:17.532Z,101809.00
2023-05-02T16:08:45.502Z,101809.00
2023-05-02T16:11:14.691Z,101824.00
2023-05-02T16:13:42.596Z,101825.00
2023-05-02T16:16:10.496Z,101833.00
2023-05-02T16:18:38.383Z,101832.00
2023-05-02T16:21:06.664Z,101830.00
2023-05-02T16:23:34.497Z,101836.00
2023-05-02T16:26:02.919Z,101834.00
2023-05-02T16:28:32.106Z,101831.00
2023-05-02T16:30:59.853Z,101848.00
2023-05-02T16:33:27.845Z,101825.00
2023-05-02T16:36:02.847Z,101831.00
2023-05-02T16:38:30.712Z,101841.00
2023-05-02T16:40:58.499Z,101853.00
2023-05-02T16:43:26.956Z,101828.00
2023-05-02T16:46:02.863Z,101850.00
2023-05-02T16:48:30.724Z,101839.00
2023-05-02T16:50:58.888Z,101843.00
2023-05-02T16:53:27.020Z,101852.00
2023-05-02T16:55:55.937Z,101835.00
2023-05-02T16:58:25.037Z,101846.00
2023-05-02T17:00:53.041Z,101847.00
2023-05-02T17:03:22.262Z,101854.00
2023-05-02T17:05:50.116Z,101851.00
2023-05-02T17:08:18.071Z,101848.00
2023-05-02T17:10:50.017Z,101849.00
2023-05-02T17:13:17.940Z,101832.00
2023-05-02T17:15:46.405Z,101852.00
2023-05-02T17:18:14.314Z,101854.00
2023-05-02T17:20:43.520Z,101850.00
2023-05-02T17:23:11.516Z,101828.00
2023-05-02T17:25:39.441Z,101853.00
2023-05-02T17:28:07.814Z,101856.00
2023-05-02T17:30:35.865Z,101857.00
2023-05-02T17:33:03.848Z,101847.00
2023-05-02T17:35:31.671Z,101845.00
2023-05-02T17:38:00.801Z,101870.00
2023-05-02T17:40:29.883Z,101839.00
2023-05-02T17:42:59.361Z,101870.00
2023-05-02T17:45:28.874Z,101876.00
2023-05-02T17:47:56.848Z,101858.00
2023-05-02T17:50:24.738Z,101878.00
2023-05-02T17:52:52.794Z,101883.00
2023-05-02T17:55:22.156Z,101845.00
2023-05-02T17:57:50.039Z,101861.00
2023-05-02T18:00:18.868Z,101883.00
2023-05-02T18:02:46.903Z,101886.00
2023-05-02T18:05:14.797Z,101877.00
2023-05-02T18:07:42.686Z,101885.00
2023-05-02T18:10:10.742Z,101886.00
2023-05-02T18:12:40.433Z,101908.00
2023-05-02T18:15:09.392Z,101872.00
2023-05-02T18:17:38.270Z,101890.00
2023-05-02T18:20:07.433Z,101894.00
2023-05-02T18:22:35.531Z,101898.00
2023-05-02T18:25:04.040Z,101882.00
2023-05-02T18:27:32.350Z,101899.00
2023-05-02T18:30:01.956Z,101910.00
2023-05-02T18:32:32.043Z,101889.00
2023-05-02T18:35:00.517Z,101861.00
2023-05-02T18:37:31.558Z,101890.00
2023-05-02T18:39:59.711Z,101873.00
2023-05-02T18:42:28.286Z,101898.00
2023-05-02T18:44:56.142Z,101906.00
2023-05-02T18:47:25.762Z,101889.00
2023-05-02T18:49:56.389Z,101901.00
2023-05-02T18:52:25.564Z,101900.00
2023-05-02T18:54:53.746Z,101855.00
2023-05-02T18:57:21.678Z,101869.00
2023-05-02T18:59:49.650Z,101891.00
2023-05-02T19:02:18.132Z,101886.00
2023-05-02T19:04:47.758Z,101887.00
2023-05-02T19:07:16.205Z,101881.00
2023-05-02T19:09:46.145Z,101916.00
2023-05-02T19:12:14.358Z,101924.00
2023-05-02T19:14:42.441Z,101921.00
2023-05-02T19:17:10.350Z,101919.00
2023-05-02T19:19:38.360Z,101916.00
2023-05-02T19:22:07.680Z,101929.00
2023-05-02T19:24:39.435Z,101929.00
2023-05-02T19:27:07.847Z,101888.00
2023-05-02T19:29:38.869Z,101939.00
2023-05-02T19:32:07.157Z,101924.00
2023-05-02T19:34:36.559Z,101946.00
2023-05-02T19:37:06.068Z,101946.00
2023-05-02T19:39:38.813Z,101963.00
2023-05-02T19:42:06.819Z,101916.00
2023-05-02T19:44:35.114Z,101965.00
2023-05-02T19:47:03.243Z,101972.00
2023-05-02T19:49:31.190Z,101957.00
2023-05-02T19:52:02.157Z,101976.00
2023-05-02T19:54:30.715Z,101933.00
2023-05-02T19:57:00.549Z,101975.00
2023-05-02T19:59:28.726Z,101930.00
2023-05-02T20:01:59.546Z,101988.00
2023-05-02T20:04:30.744Z,101969.00
2023-05-02T20:06:59.010Z,101959.00
2023-05-02T20:09:29.641Z,101985.00
2023-05-02T20:11:59.392Z,101976.00
2023-05-02T20:14:27.550Z,101994.00
2023-05-02T20:17:01.803Z,101997.00
2023-05-02T20:19:32.371Z,101990.00
2023-05-02T20:22:00.545Z,102006.00
2023-05-02T20:24:28.584Z,102008.00
2023-05-02T20:27:01.461Z,101972.00
2023-05-02T20:29:29.404Z,102014.00
2023-05-02T20:31:57.562Z,102008.00
2023-05-02T20:34:27.882Z,101991.00
2023-05-02T20:36:56.071Z,102011.00
2023-05-02T20:39:24.828Z,101996.00
2023-05-02T20:41:53.166Z,102010.00
2023-05-02T20:44:22.870Z,102008.00
2023-05-02T20:46:51.569Z,102009.00
2023-05-02T20:49:19.807Z,101995.00
2023-05-02T20:51:47.857Z,102024.00
2023-05-02T20:54:15.943Z,102007.00
2023-05-02T20:56:47.604Z,101964.00
2023-05-02T20:59:16.133Z,102018.00
2023-05-02T21:01:50.784Z,102029.00
2023-05-02T21:04:19.742Z,102013.00
2023-05-02T21:06:48.310Z,101980.00
2023-05-02T21:09:17.716Z,101971.00
2023-05-02T21:11:49.091Z,101985.00
2023-05-02T21:14:38.583Z,102028.00
2023-05-02T21:17:13.286Z,102009.00
2023-05-02T21:19:43.986Z,102018.00
2023-05-02T21:22:17.097Z,101989.00
2023-05-02T21:24:48.173Z,101990.00
2023-05-02T21:27:16.527Z,102032.00
2023-05-02T21:29:53.222Z,102001.00
2023-05-02T21:32:24.766Z,102043.00
2023-05-02T21:34:53.100Z,101984.00
2023-05-02T21:37:22.455Z,102021.00
2023-05-02T21:39:50.535Z,102009.00
2023-05-02T21:42:18.989Z,102039.00
2023-05-02T21:44:47.363Z,102032.00
2023-05-02T21:47:15.759Z,101978.00
2023-05-02T21:49:45.658Z,102022.00
2023-05-02T21:52:13.850Z,102002.00
2023-05-02T21:54:59.499Z,101984.00
2023-05-02T21:57:30.524Z,102037.00
2023-05-02T21:59:58.633Z,102011.00
2023-05-02T22:02:27.858Z,102003.00
2023-05-02T22:04:57.954Z,102037.00
2023-05-02T22:07:26.326Z,102009.00
2023-05-02T22:09:56.611Z,102036.00
2023-05-02T22:12:27.407Z,102026.00
2023-05-02T22:14:55.597Z,102016.00
2023-05-02T22:17:24.131Z,101965.00
2023-05-02T22:19:53.260Z,102019.00
2023-05-02T22:22:22.852Z,102027.00
2023-05-02T22:24:51.046Z,102011.00
2023-05-02T22:27:19.205Z,102042.00
2023-05-02T22:29:47.417Z,102035.00
2023-05-02T22:32:15.619Z,102027.00
2023-05-02T22:34:43.832Z,102064.00
2023-05-02T22:37:12.751Z,101998.00
2023-05-02T22:39:44.187Z,102026.00
2023-05-02T22:42:12.378Z,102033.00
2023-05-02T22:44:53.135Z,102030.00
2023-05-02T22:47:23.178Z,102044.00
2023-05-02T22:49:52.779Z,102039.00
2023-05-02T22:52:21.436Z,102018.00
2023-05-02T22:54:51.112Z,102005.00
2023-05-02T22:57:22.458Z,102072.00
2023-05-02T22:59:51.922Z,102066.00
2023-05-02T23:02:20.552Z,102011.00
2023-05-02T23:04:48.836Z,102065.00
2023-05-02T23:07:16.973Z,102015.00
2023-05-02T23:09:46.120Z,102012.00
2023-05-02T23:12:15.711Z,102052.00
2023-05-02T23:14:44.836Z,102020.00
2023-05-02T23:17:12.785Z,102038.00
2023-05-02T23:19:40.838Z,102021.00
2023-05-02T23:22:09.168Z,102023.00
2023-05-02T23:24:37.220Z,102049.00
2023-05-02T23:27:07.254Z,102034.00
2023-05-02T23:29:37.993Z,102026.00
2023-05-02T23:32:08.165Z,102049.00
2023-05-02T23:34:37.348Z,102020.00
2023-05-02T23:37:07.047Z,102059.00
2023-05-02T23:39:35.378Z,102063.00
2023-05-02T23:42:04.676Z,102078.00
2023-05-02T23:44:33.249Z,102019.00
2023-05-02T23:47:03.323Z,102053.00
2023-05-02T23:49:31.654Z,102071.00
2023-05-02T23:51:59.797Z,102063.00
2023-05-02T23:54:31.807Z,102067.00
2023-05-02T23:57:01.403Z,102032.00
2023-05-02T23:59:30.757Z,102047.00
